Time;durP1;ratioP1;P1;durP2;ratioP2;P2;SDS_P1;SDS_P2;PMS_P1;PMS_P2;Temp;Humidity;BMP_temperature;BMP_pressure;BME280_temperature;BME280_humidity;BME280_pressure;Samples;Min_cycle;Max_cycle;Signal;HPM_P1;HPM_P2
2022/11/07 00:00:17;;;;;;;87.37;12.87;;;;;;;;;;5067856;28;20481;-61
2022/11/07 00:02:44;;;;;;;61.07;13.57;;;11.70;99.90;;;;;;5076193;28;20817;-61
2022/11/07 00:05:11;;;;;;;51.83;10.30;;;10.40;99.90;;;;;;5069714;28;21197;-61
2022/11/07 00:07:37;;;;;;;29.57;9.80;;;11.80;99.90;;;;;;5073149;28;20505;-61
2022/11/07 00:10:05;;;;;;;14.57;6.97;;;11.80;99.90;;;;;;5071978;28;20478;-61
2022/11/07 00:12:35;;;;;;;50.87;14.47;;;11.80;99.90;;;;;;5060785;28;20862;-60
2022/11/07 00:15:03;;;;;;;20.00;7.50;;;11.80;99.90;;;;;;5075696;28;20479;-62
2022/11/07 00:17:30;;;;;;;32.77;13.50;;;11.80;99.90;;;;;;5070697;28;20546;-61
2022/11/07 00:19:57;;;;;;;22.23;9.33;;;11.90;99.90;;;;;;5066841;28;20486;-61
2022/11/07 00:22:24;;;;;;;50.83;13.60;;;11.90;99.90;;;;;;5073597;28;20509;-62
2022/11/07 00:24:50;;;;;;;23.73;7.93;;;12.00;99.90;;;;;;5070633;28;20517;-61
2022/11/07 00:27:17;;;;;;;27.80;10.77;;;11.90;99.90;;;;;;5065726;28;21036;-62
2022/11/07 00:29:45;;;;;;;23.53;8.60;;;11.80;99.90;;;;;;5070381;28;20486;-62
2022/11/07 00:32:12;;;;;;;31.17;11.03;;;11.80;99.90;;;;;;5065465;28;20546;-62
2022/11/07 00:34:39;;;;;;;20.50;8.30;;;;;;;;;;5081978;28;20490;-61
2022/11/07 00:37:06;;;;;;;39.90;13.77;;;11.80;99.90;;;;;;5064937;28;20486;-62
2022/11/07 00:39:33;;;;;;;32.47;11.50;;;;;;;;;;5063876;28;20482;-61
2022/11/07 00:42:00;;;;;;;29.73;9.30;;;;;;;;;;5068889;28;20482;-61
2022/11/07 00:44:28;;;;;;;46.17;14.30;;;;;;;;;;5070138;28;20485;-61
2022/11/07 00:46:56;;;;;;;26.70;8.57;;;10.80;99.90;;;;;;5070595;28;20478;-61
2022/11/07 00:49:23;;;;;;;46.33;14.37;;;;;;;;;;5068589;28;20599;-61
2022/11/07 00:51:50;;;;;;;24.03;8.53;;;12.00;99.90;;;;;;5073732;28;20485;-61
2022/11/07 00:54:16;;;;;;;30.03;9.17;;;12.00;99.90;;;;;;5069068;28;20478;-62
2022/11/07 00:56:44;;;;;;;24.90;10.10;;;;;;;;;;5068557;28;20492;-62
2022/11/07 00:59:11;;;;;;;21.27;8.73;;;12.00;99.90;;;;;;5075853;28;20467;-61
2022/11/07 01:01:38;;;;;;;25.80;9.50;;;12.00;99.90;;;;;;5058033;28;20819;-60
2022/11/07 01:06:51;;;;;;;25.77;10.03;;;14.50;99.90;;;;;;5070148;28;20610;-61
2022/11/07 01:09:20;;;;;;;34.73;10.67;;;12.80;99.90;;;;;;5074165;28;20480;-61
2022/11/07 01:11:48;;;;;;;24.67;7.43;;;11.90;99.90;;;;;;5070553;28;20483;-61
2022/11/07 01:14:18;;;;;;;30.80;9.80;;;11.90;99.90;;;;;;5061880;28;20500;-60
2022/11/07 01:16:45;;;;;;;18.97;7.30;;;12.00;99.90;;;;;;5061513;28;20478;-61
2022/11/07 01:19:14;;;;;;;40.60;8.43;;;9.70;99.90;;;;;;5068506;28;21125;-61
2022/11/07 01:21:42;;;;;;;35.23;10.07;;;12.00;99.90;;;;;;5058548;28;20474;-60
2022/11/07 01:24:10;;;;;;;24.83;7.80;;;;;;;;;;5080893;28;20486;-61
2022/11/07 01:26:38;;;;;;;32.50;8.10;;;12.00;99.90;;;;;;5067469;28;20470;-61
2022/11/07 01:29:05;;;;;;;26.93;8.10;;;12.00;99.90;;;;;;5065271;28;20849;-60
2022/11/07 01:31:32;;;;;;;49.10;15.43;;;12.00;99.90;;;;;;5063202;28;20859;-60
2022/11/07 01:34:00;;;;;;;30.50;8.77;;;12.00;99.90;;;;;;5065748;28;20531;-60
2022/11/07 01:36:28;;;;;;;42.90;13.57;;;12.00;99.90;;;;;;5067097;28;20475;-61
2022/11/07 01:38:55;;;;;;;25.60;8.50;;;11.90;99.90;;;;;;5067149;28;20486;-61
2022/11/07 01:41:24;;;;;;;46.90;13.57;;;12.00;99.90;;;;;;5068218;28;20486;-60
2022/11/07 01:44:01;;;;;;;45.57;10.67;;;11.90;99.90;;;;;;5059586;28;20900;-61
2022/11/07 01:46:30;;;;;;;40.77;13.73;;;;;;;;;;5076772;28;20904;-61
2022/11/07 01:49:05;;;;;;;48.13;10.00;;;11.90;99.90;;;;;;5073411;28;20481;-61
2022/11/07 01:51:37;;;;;;;57.37;13.20;;;12.00;99.90;;;;;;5069054;28;20903;-61
2022/11/07 01:54:04;;;;;;;28.57;9.03;;;12.00;99.90;;;;;;5068021;28;21040;-62
2022/11/07 01:56:35;;;;;;;29.13;11.50;;;12.00;99.90;;;;;;5071213;28;20478;-61
2022/11/07 01:59:03;;;;;;;22.70;8.37;;;12.00;99.90;;;;;;5071242;28;20494;-62
2022/11/07 02:01:30;;;;;;;41.30;13.30;;;;;;;;;;5066818;28;20578;-61
2022/11/07 02:03:59;;;;;;;32.00;9.03;;;12.00;99.90;;;;;;5065316;28;20490;-61
2022/11/07 02:06:37;;;;;;;45.47;12.00;;;11.90;99.90;;;;;;5066455;28;20493;-61
2022/11/07 02:09:04;;;;;;;27.20;8.47;;;11.90;99.90;;;;;;5070024;28;20697;-61
2022/11/07 02:11:32;;;;;;;38.43;13.73;;;12.00;99.90;;;;;;5066383;28;20494;-61
2022/11/07 02:13:58;;;;;;;26.20;7.70;;;12.00;99.90;;;;;;5069400;28;20488;-61
2022/11/07 02:16:26;;;;;;;51.17;14.17;;;11.90;99.90;;;;;;5065860;28;21000;-60
2022/11/07 02:18:54;;;;;;;44.00;10.60;;;11.90;99.90;;;;;;5081968;28;20855;-61
2022/11/07 02:21:29;;;;;;;37.37;10.30;;;;;;;;;;5059095;28;20481;-60
2022/11/07 02:24:01;;;;;;;36.93;9.70;;;;;;;;;;5084040;28;20916;-61
2022/11/07 02:26:30;;;;;;;42.67;9.57;;;11.80;99.90;;;;;;5059639;28;20494;-60
2022/11/07 02:28:58;;;;;;;44.13;7.57;;;11.80;99.90;;;;;;5075125;28;20493;-60
2022/11/07 02:31:25;;;;;;;50.67;15.50;;;11.80;99.90;;;;;;5073351;28;20974;-60
2022/11/07 02:33:51;;;;;;;26.63;7.50;;;11.80;99.90;;;;;;5071363;28;20485;-61
2022/11/07 02:36:20;;;;;;;33.20;8.53;;;;;;;;;;5073711;28;20769;-60
2022/11/07 02:38:50;;;;;;;29.50;6.63;;;11.70;99.90;;;;;;5070857;28;20876;-61
2022/11/07 02:41:19;;;;;;;44.70;10.13;;;11.70;99.90;;;;;;5065284;28;20487;-60
2022/11/07 02:43:51;;;;;;;18.43;6.53;;;11.60;99.90;;;;;;5072591;28;20490;-61
2022/11/07 02:46:18;;;;;;;42.07;9.23;;;11.50;99.90;;;;;;5065549;28;20482;-61
2022/11/07 02:48:48;;;;;;;34.47;8.00;;;11.60;99.90;;;;;;5077644;28;21053;-61
2022/11/07 02:51:15;;;;;;;20.47;6.03;;;11.70;99.90;;;;;;5084121;28;20493;-60
2022/11/07 02:53:42;;;;;;;36.50;6.47;;;11.70;99.90;;;;;;5080133;28;20493;-61
2022/11/07 02:56:09;;;;;;;32.40;8.20;;;11.80;99.90;;;;;;5074909;28;20493;-59
2022/11/07 02:58:36;;;;;;;38.60;11.10;;;11.80;99.90;;;;;;5070824;28;20481;-61
2022/11/07 03:01:06;;;;;;;40.73;6.97;;;11.80;99.90;;;;;;5074316;28;21169;-60
2022/11/07 03:03:34;;;;;;;36.47;12.53;;;11.90;99.90;;;;;;5064852;28;20822;-60
2022/11/07 03:06:02;;;;;;;27.37;8.73;;;11.80;99.90;;;;;;5063840;28;20470;-60
2022/11/07 03:08:29;;;;;;;35.10;10.40;;;;;;;;;;5064504;28;20475;-61
2022/11/07 03:10:56;;;;;;;18.90;7.00;;;11.80;99.90;;;;;;5075272;28;21054;-60
2022/11/07 03:13:23;;;;;;;49.17;13.40;;;11.80;99.90;;;;;;5071025;28;20477;-60
2022/11/07 03:15:51;;;;;;;38.23;8.63;;;11.80;99.90;;;;;;5078828;28;20482;-60
2022/11/07 03:18:19;;;;;;;48.17;10.00;;;;;;;;;;5073081;28;20485;-60
2022/11/07 03:20:46;;;;;;;23.47;7.57;;;;;;;;;;5067164;28;20492;-60
2022/11/07 03:23:13;;;;;;;25.03;7.37;;;11.70;99.90;;;;;;5077445;28;20937;-60
2022/11/07 03:25:41;;;;;;;23.20;7.17;;;11.60;99.90;;;;;;5082115;28;20477;-60
2022/11/07 03:28:08;;;;;;;25.63;8.73;;;;;;;;;;5075679;28;20739;-60
2022/11/07 03:30:35;;;;;;;40.57;10.23;;;11.50;99.90;;;;;;5073803;28;20493;-60
2022/11/07 03:33:02;;;;;;;29.23;7.97;;;11.60;99.90;;;;;;5077691;28;20592;-61
2022/11/07 03:35:31;;;;;;;60.27;13.90;;;;;;;;;;5069709;28;20679;-60
2022/11/07 03:37:57;;;;;;;27.33;6.43;;;11.90;99.90;;;;;;5071076;28;20485;-61
2022/11/07 03:40:24;;;;;;;47.33;13.27;;;11.60;99.90;;;;;;5074389;28;20502;-61
2022/11/07 03:42:51;;;;;;;24.20;7.53;;;11.60;99.90;;;;;;5073806;28;20486;-60
2022/11/07 03:45:18;;;;;;;30.67;7.40;;;11.60;99.90;;;;;;5063488;28;20478;-60
2022/11/07 03:47:46;;;;;;;20.20;6.40;;;11.60;99.90;;;;;;5068000;28;20485;-61
2022/11/07 03:50:14;;;;;;;24.00;6.40;;;;;;;;;;5064723;28;20475;-60
2022/11/07 03:52:43;;;;;;;32.07;8.73;;;11.60;99.90;;;;;;5078015;28;20489;-61
2022/11/07 03:55:10;;;;;;;25.77;8.50;;;;;;;;;;5061231;28;20842;-60
2022/11/07 03:57:37;;;;;;;29.13;7.53;;;;;;;;;;5062560;28;20489;-61
2022/11/07 04:00:06;;;;;;;20.13;6.53;;;11.70;99.90;;;;;;5074977;28;20482;-60
2022/11/07 04:02:33;;;;;;;39.70;13.00;;;;;;;;;;5070818;28;20482;-60
2022/11/07 04:05:00;;;;;;;33.07;9.30;;;;;;;;;;5068830;28;20490;-61
2022/11/07 04:07:28;;;;;;;63.00;15.40;;;;;;;;;;5063026;28;20497;-61
2022/11/07 04:09:56;;;;;;;49.87;9.43;;;11.50;99.90;;;;;;5059801;28;20830;-60
2022/11/07 04:17:52;;;;;;;44.93;9.57;;;11.50;99.90;;;;;;5072730;28;21024;-61
2022/11/07 04:20:19;;;;;;;47.03;9.47;;;;;;;;;;5074429;28;21020;-60
2022/11/07 04:22:46;;;;;;;34.27;8.60;;;;;;;;;;5077161;28;20485;-61
2022/11/07 04:25:15;;;;;;;38.57;7.53;;;11.60;99.90;;;;;;5072549;28;20529;-60
2022/11/07 04:27:43;;;;;;;58.10;10.70;;;11.70;99.90;;;;;;5067718;28;20569;-61
2022/11/07 04:30:21;;;;;;;60.57;9.87;;;11.60;99.90;;;;;;5070822;28;20474;-60
2022/11/07 04:32:49;;;;;;;49.43;9.20;;;11.60;99.90;;;;;;5073268;28;20517;-61
2022/11/07 04:35:17;;;;;;;68.10;10.27;;;11.60;99.90;;;;;;5066131;28;20500;-60
2022/11/07 04:37:44;;;;;;;63.20;11.10;;;;;;;;;;5072379;28;20482;-60
2022/11/07 04:40:12;;;;;;;115.40;10.47;;;11.60;99.90;;;;;;5076214;28;20501;-60
2022/11/07 04:42:40;;;;;;;52.23;10.17;;;11.60;99.90;;;;;;5063982;28;20489;-60
2022/11/07 04:45:08;;;;;;;74.73;11.10;;;11.50;99.90;;;;;;5080689;28;20482;-61
2022/11/07 04:47:35;;;;;;;125.67;14.40;;;11.60;99.90;;;;;;5062181;28;20486;-60
2022/11/07 04:50:02;;;;;;;67.97;10.30;;;;;;;;;;5078936;28;20929;-61
2022/11/07 04:52:29;;;;;;;115.07;15.53;;;11.70;99.90;;;;;;5067301;28;20915;-61
2022/11/07 04:54:56;;;;;;;62.77;11.00;;;;;;;;;;5063079;28;20896;-60
2022/11/07 04:57:24;;;;;;;162.20;18.97;;;;;;;;;;5058925;28;21023;-61
2022/11/07 04:59:53;;;;;;;86.97;10.63;;;;;;;;;;5057655;28;20474;-61
2022/11/07 05:02:23;;;;;;;83.63;10.47;;;;;;;;;;5085012;28;20479;-60
2022/11/07 05:04:50;;;;;;;38.13;8.13;;;11.80;99.90;;;;;;5060450;28;20471;-60
2022/11/07 05:07:17;;;;;;;42.00;9.17;;;11.80;99.90;;;;;;5074335;28;20477;-61
2022/11/07 05:09:43;;;;;;;35.83;8.27;;;11.70;99.90;;;;;;5070014;28;20979;-60
2022/11/07 05:12:10;;;;;;;24.53;7.40;;;;;;;;;;5076705;28;20465;-60
2022/11/07 05:14:38;;;;;;;29.13;8.13;;;;;;;;;;5074936;28;20490;-60
2022/11/07 05:17:06;;;;;;;39.57;9.37;;;11.70;99.90;;;;;;5066921;28;20488;-62
2022/11/07 05:19:32;;;;;;;33.60;11.40;;;11.70;99.90;;;;;;5075961;28;20472;-61
2022/11/07 05:24:44;;;;;;;22.37;6.23;;;;;;;;;;5055752;28;20504;-61
2022/11/07 05:27:17;;;;;;;20.33;7.17;;;;;;;;;;5072425;28;20489;-61
2022/11/07 05:29:44;;;;;;;16.73;5.40;;;11.90;99.90;;;;;;5059232;28;20481;-62
2022/11/07 05:32:13;;;;;;;27.93;6.50;;;11.90;99.90;;;;;;5070371;28;20479;-62
2022/11/07 05:34:40;;;;;;;21.53;5.90;;;11.90;99.90;;;;;;5071378;28;20843;-62
2022/11/07 05:37:08;;;;;;;40.60;10.27;;;;;;;;;;5067125;28;20494;-63
2022/11/07 05:39:35;;;;;;;25.23;7.80;;;12.00;99.90;;;;;;5061543;28;20588;-61
2022/11/07 05:42:02;;;;;;;20.17;6.17;;;12.00;99.90;;;;;;5064436;28;20469;-61
2022/11/07 05:44:29;;;;;;;42.53;12.43;;;11.90;99.90;;;;;;5074572;28;20478;-62
2022/11/07 05:46:56;;;;;;;29.93;7.60;;;12.00;99.90;;;;;;5065959;28;20473;-61
2022/11/07 05:49:24;;;;;;;23.27;9.23;;;;;;;;;;5069068;28;20478;-62
2022/11/07 05:51:51;;;;;;;16.27;5.33;;;;;;;;;;5069309;28;20987;-62
2022/11/07 05:54:18;;;;;;;21.20;6.60;;;12.00;99.90;;;;;;5059821;28;20486;-61
2022/11/07 05:56:46;;;;;;;20.13;5.93;;;14.60;99.90;;;;;;5082119;28;20705;-62
2022/11/07 05:59:13;;;;;;;23.17;8.10;;;;;;;;;;5071374;28;20551;-62
2022/11/07 06:01:40;;;;;;;27.43;6.77;;;11.90;99.90;;;;;;5060372;28;20496;-61
2022/11/07 06:04:07;;;;;;;37.50;8.87;;;11.80;99.90;;;;;;5078695;28;20470;-61
2022/11/07 06:06:35;;;;;;;34.67;9.77;;;11.70;99.90;;;;;;5040563;28;20487;-61
2022/11/07 06:09:03;;;;;;;37.17;6.97;;;11.80;99.90;;;;;;5040141;28;21030;-61
2022/11/07 06:11:31;;;;;;;32.90;12.57;;;11.80;99.90;;;;;;5045482;28;20902;-62
2022/11/07 06:13:58;;;;;;;23.27;7.70;;;;;;;;;;5051746;28;20771;-61
2022/11/07 06:16:25;;;;;;;31.27;12.23;;;11.90;99.90;;;;;;5059269;28;20540;-62
2022/11/07 06:18:52;;;;;;;18.10;8.63;;;11.90;99.90;;;;;;5069575;28;20471;-61
2022/11/07 06:21:18;;;;;;;38.30;8.63;;;8.70;99.90;;;;;;5044158;28;20457;-61
2022/11/07 06:23:47;;;;;;;25.00;6.60;;;11.80;99.90;;;;;;5084577;28;20854;-61
2022/11/07 06:26:13;;;;;;;25.37;7.80;;;11.90;99.90;;;;;;5075938;28;20569;-61
2022/11/07 06:28:40;;;;;;;19.23;6.73;;;11.90;99.90;;;;;;5076035;28;20490;-62
2022/11/07 06:31:07;;;;;;;20.83;5.43;;;11.90;99.90;;;;;;5076976;28;20484;-61
2022/11/07 06:33:34;;;;;;;43.27;10.07;;;11.90;99.90;;;;;;5064543;28;20489;-62
2022/11/07 06:36:06;;;;;;;30.13;8.20;;;11.70;99.90;;;;;;5091067;28;20502;-61
2022/11/07 06:38:32;;;;;;;36.50;10.40;;;11.80;99.90;;;;;;5072445;28;20794;-61
2022/11/07 06:41:05;;;;;;;44.07;9.50;;;11.80;99.90;;;;;;5077463;28;20470;-62
2022/11/07 06:43:33;;;;;;;55.43;14.53;;;11.70;99.90;;;;;;5074034;28;20486;-62
2022/11/07 06:46:04;;;;;;;42.50;8.10;;;11.70;99.90;;;;;;5055073;28;20488;-62
2022/11/07 06:48:30;;;;;;;52.73;12.37;;;11.70;99.90;;;;;;5073125;28;20559;-61
2022/11/07 06:50:58;;;;;;;58.17;7.77;;;;;;;;;;5069134;28;20475;-62
2022/11/07 06:53:25;;;;;;;55.30;13.63;;;;;;;;;;5067537;28;20555;-62
2022/11/07 06:55:52;;;;;;;37.30;8.43;;;11.80;99.90;;;;;;5071090;28;20893;-62
2022/11/07 06:58:21;;;;;;;54.57;10.60;;;11.80;99.90;;;;;;5073544;28;21650;-62
2022/11/07 07:00:48;;;;;;;38.73;8.40;;;11.90;99.90;;;;;;5082460;28;20474;-62
2022/11/07 07:03:15;;;;;;;41.87;8.10;;;11.80;99.90;;;;;;5070808;28;20486;-62
2022/11/07 07:05:43;;;;;;;44.57;7.63;;;11.90;99.90;;;;;;5072576;28;20511;-61
2022/11/07 07:08:11;;;;;;;34.37;7.50;;;12.00;99.90;;;;;;5071153;28;21053;-61
2022/11/07 07:10:42;;;;;;;48.87;9.37;;;12.00;99.90;;;;;;5073887;28;20581;-61
2022/11/07 07:13:09;;;;;;;38.20;8.00;;;12.60;99.90;;;;;;5074240;28;20474;-61
2022/11/07 07:15:37;;;;;;;63.47;12.67;;;;;;;;;;5075245;28;20536;-62
2022/11/07 07:18:04;;;;;;;46.30;8.30;;;12.10;99.90;;;;;;5064557;28;21021;-62
2022/11/07 07:20:32;;;;;;;52.70;10.27;;;12.10;99.90;;;;;;5083147;28;20486;-62
2022/11/07 07:22:59;;;;;;;53.03;12.23;;;7.60;99.90;;;;;;5075696;28;20486;-61
2022/11/07 07:25:26;;;;;;;44.97;10.60;;;15.10;99.90;;;;;;5074669;28;20493;-62
2022/11/07 07:27:53;;;;;;;30.53;6.43;;;8.60;99.90;;;;;;5064408;28;20555;-62
2022/11/07 07:30:20;;;;;;;48.63;9.10;;;12.10;99.90;;;;;;5071809;28;20485;-62
2022/11/07 07:32:49;;;;;;;39.80;7.93;;;12.10;99.90;;;;;;5067429;28;20482;-62
2022/11/07 07:35:16;;;;;;;39.23;8.30;;;12.10;99.90;;;;;;5078425;28;20728;-62
2022/11/07 07:37:42;;;;;;;28.27;7.47;;;12.20;99.90;;;;;;5067865;28;20475;-62
2022/11/07 07:40:10;;;;;;;28.37;6.60;;;12.20;99.90;;;;;;5066755;28;20999;-61
2022/11/07 07:42:41;;;;;;;39.50;9.20;;;;;;;;;;5071252;28;20617;-62
2022/11/07 07:45:10;;;;;;;55.27;9.43;;;12.30;99.90;;;;;;5070013;28;21055;-62
2022/11/07 07:47:37;;;;;;;64.63;13.60;;;12.40;99.90;;;;;;5069096;28;20482;-62
2022/11/07 07:50:07;;;;;;;45.20;7.67;;;12.50;99.90;;;;;;5071770;28;20502;-62
2022/11/07 07:52:34;;;;;;;80.50;13.13;;;;;;;;;;5062626;28;20895;-62
2022/11/07 07:55:01;;;;;;;36.17;7.30;;;12.50;99.90;;;;;;5066317;28;20489;-62
2022/11/07 07:57:28;;;;;;;56.10;13.13;;;12.50;99.90;;;;;;5053874;28;20466;-62
2022/11/07 07:59:55;;;;;;;34.90;7.63;;;12.50;99.90;;;;;;5070577;28;20482;-62
2022/11/07 08:02:21;;;;;;;38.80;8.97;;;12.40;99.90;;;;;;5056164;28;21154;-62
2022/11/07 08:04:48;;;;;;;54.83;9.93;;;12.40;99.90;;;;;;5068584;28;20481;-62
2022/11/07 08:07:16;;;;;;;39.80;9.30;;;12.50;99.90;;;;;;5078029;28;20478;-61
2022/11/07 08:09:43;;;;;;;37.77;6.40;;;12.40;99.90;;;;;;5073933;28;20486;-62
2022/11/07 08:12:10;;;;;;;40.83;9.07;;;12.50;99.90;;;;;;5075579;28;20474;-61
2022/11/07 08:14:36;;;;;;;25.97;8.73;;;12.60;99.90;;;;;;5067928;28;20491;-62
2022/11/07 08:17:04;;;;;;;34.30;10.20;;;12.60;99.90;;;;;;5067854;28;20498;-63
2022/11/07 08:19:30;;;;;;;32.87;11.33;;;12.70;99.90;;;;;;5072443;28;20486;-62
2022/11/07 08:21:57;;;;;;;30.83;6.43;;;12.80;99.90;;;;;;5067448;28;20486;-61
2022/11/07 08:24:25;;;;;;;54.63;12.97;;;13.00;99.90;;;;;;5067790;28;20826;-62
2022/11/07 08:26:52;;;;;;;52.40;13.47;;;;;;;;;;5056259;28;20852;-62
2022/11/07 08:29:19;;;;;;;36.17;8.53;;;13.50;99.90;;;;;;5065320;28;20478;-62
2022/11/07 08:31:49;;;;;;;32.63;7.47;;;13.60;99.90;;;;;;5051259;28;20510;-62
2022/11/07 08:34:16;;;;;;;34.77;7.97;;;13.50;99.90;;;;;;5057458;28;20471;-62
2022/11/07 08:36:43;;;;;;;16.37;5.67;;;13.70;99.90;;;;;;5068802;28;20512;-62
2022/11/07 08:39:10;;;;;;;28.50;6.37;;;13.60;99.90;;;;;;5064659;28;20731;-62
2022/11/07 08:41:38;;;;;;;38.50;10.83;;;13.70;99.90;;;;;;5069194;28;20494;-62
2022/11/07 08:44:07;;;;;;;32.10;9.47;;;16.20;99.90;;;;;;5066325;28;20489;-62
2022/11/07 08:46:33;;;;;;;37.23;9.03;;;13.70;99.90;;;;;;5069663;28;20794;-61
2022/11/07 08:49:00;;;;;;;51.83;10.13;;;13.70;99.90;;;;;;5063861;28;20486;-62
2022/11/07 08:51:27;;;;;;;57.67;14.57;;;13.50;99.90;;;;;;5074139;28;20466;-62
2022/11/07 08:53:54;;;;;;;54.77;8.27;;;;;;;;;;5059707;28;20999;-62
2022/11/07 08:56:21;;;;;;;43.17;11.20;;;13.60;99.90;;;;;;5066366;28;20482;-62
2022/11/07 08:58:49;;;;;;;32.83;6.83;;;13.70;99.90;;;;;;5070279;28;20586;-62
2022/11/07 09:01:16;;;;;;;36.33;8.03;;;13.60;99.90;;;;;;5057956;28;20479;-61
2022/11/07 09:03:43;;;;;;;36.20;7.80;;;13.70;99.90;;;;;;5079157;28;20532;-62
2022/11/07 09:06:10;;;;;;;48.67;8.63;;;;;;;;;;5070092;28;20605;-62
2022/11/07 09:08:39;;;;;;;51.10;9.07;;;;;;;;;;5069977;28;20481;-62
2022/11/07 09:11:07;;;;;;;35.43;8.50;;;13.50;99.90;;;;;;5056823;28;20550;-61
2022/11/07 09:13:34;;;;;;;55.70;11.80;;;;;;;;;;5070680;28;20479;-62
2022/11/07 09:16:03;;;;;;;41.00;7.97;;;;;;;;;;5059307;28;20470;-62
2022/11/07 09:18:31;;;;;;;144.97;17.80;;;13.80;99.90;;;;;;5055110;28;21204;-62
2022/11/07 09:20:58;;;;;;;62.37;9.33;;;;;;;;;;5074931;28;20485;-61
2022/11/07 09:23:26;;;;;;;129.27;15.17;;;;;;;;;;5066151;28;20852;-61
2022/11/07 09:25:53;;;;;;;96.80;10.17;;;15.80;99.90;;;;;;5060854;28;20548;-62
2022/11/07 09:28:20;;;;;;;219.50;20.30;;;;;;;;;;5051025;28;20471;-61
2022/11/07 09:30:53;;;;;;;42.27;8.47;;;;;;;;;;5056181;28;20506;-62
2022/11/07 09:33:21;;;;;;;35.67;9.30;;;14.30;99.90;;;;;;5060129;28;21234;-62
2022/11/07 09:35:48;;;;;;;48.03;7.90;;;14.40;99.90;;;;;;5059916;28;20490;-62
2022/11/07 09:38:15;;;;;;;40.40;9.67;;;14.10;99.90;;;;;;5058637;28;21063;-62
2022/11/07 09:40:48;;;;;;;29.37;6.60;;;14.20;99.90;;;;;;5066352;28;20482;-62
2022/11/07 09:43:29;;;;;;;32.47;8.23;;;;;;;;;;5062898;28;20478;-62
2022/11/07 09:46:01;;;;;;;26.70;7.57;;;;;;;;;;5068127;28;20539;-62
2022/11/07 09:48:34;;;;;;;38.77;9.90;;;;;;;;;;5064942;28;20484;-62
2022/11/07 09:51:01;;;;;;;21.43;5.37;;;14.00;99.90;;;;;;5059035;28;20479;-62
2022/11/07 09:53:31;;;;;;;23.23;10.63;;;13.90;99.90;;;;;;5076601;28;20803;-62
2022/11/07 09:56:00;;;;;;;22.87;7.10;;;14.00;99.90;;;;;;5068945;28;20481;-62
2022/11/07 09:58:30;;;;;;;45.50;12.30;;;;;;;;;;5062996;28;20481;-62
2022/11/07 10:01:00;;;;;;;39.93;8.23;;;14.00;99.90;;;;;;5076767;28;20474;-61
2022/11/07 10:03:27;;;;;;;43.40;14.33;;;14.10;99.90;;;;;;5069481;28;21045;-62
2022/11/07 10:06:05;;;;;;;28.87;8.77;;;14.10;99.90;;;;;;5068521;28;20638;-61
2022/11/07 10:08:38;;;;;;;35.77;9.47;;;14.10;99.90;;;;;;5075197;28;20802;-62
2022/11/07 10:11:12;;;;;;;26.20;7.40;;;14.00;99.90;;;;;;5063733;28;20474;-62
2022/11/07 10:13:52;;;;;;;42.93;7.87;;;14.10;99.90;;;;;;5057043;28;20921;-62
2022/11/07 10:16:31;;;;;;;49.73;7.90;;;14.10;99.90;;;;;;5060336;28;20478;-62
2022/11/07 10:19:07;;;;;;;22.83;6.30;;;14.00;99.90;;;;;;5076887;28;20485;-62
2022/11/07 10:21:39;;;;;;;30.20;7.30;;;;;;;;;;5063541;28;20478;-62
2022/11/07 10:24:27;;;;;;;33.00;6.47;;;14.20;99.90;;;;;;5062413;28;20486;-62
2022/11/07 10:26:56;;;;;;;24.27;10.17;;;;;;;;;;5066881;28;20993;-62
2022/11/07 10:29:25;;;;;;;47.63;9.00;;;;;;;;;;5067305;28;20478;-62
2022/11/07 10:31:57;;;;;;;26.57;8.30;;;14.40;99.90;;;;;;5060254;28;20542;-62
2022/11/07 10:34:30;;;;;;;28.83;9.87;;;;;;;;;;5070616;28;20925;-62
2022/11/07 10:36:58;;;;;;;50.37;12.90;;;;;;;;;;5065435;28;21212;-62
2022/11/07 10:39:25;;;;;;;29.70;10.03;;;14.60;99.90;;;;;;5062823;28;20943;-62
2022/11/07 10:41:59;;;;;;;21.33;6.50;;;14.60;99.90;;;;;;5076517;28;20462;-62
2022/11/07 10:44:27;;;;;;;34.30;10.73;;;14.60;99.90;;;;;;5060973;28;20557;-62
2022/11/07 10:46:54;;;;;;;21.00;7.83;;;14.60;99.90;;;;;;5054754;28;20494;-62
2022/11/07 10:49:22;;;;;;;36.43;7.00;;;14.50;99.90;;;;;;5068220;28;20491;-62
2022/11/07 10:51:49;;;;;;;36.60;10.23;;;;;;;;;;5060578;28;20483;-62
2022/11/07 10:54:22;;;;;;;34.90;11.03;;;14.60;99.90;;;;;;5075623;28;20474;-62
2022/11/07 10:56:57;;;;;;;30.20;8.20;;;14.70;99.90;;;;;;5064196;28;20517;-62
2022/11/07 10:59:26;;;;;;;37.43;10.60;;;14.70;99.90;;;;;;5062487;28;20476;-62
2022/11/07 11:01:54;;;;;;;33.13;6.13;;;;;;;;;;5074018;28;20490;-62
2022/11/07 11:04:23;;;;;;;34.77;10.27;;;14.90;99.90;;;;;;5070014;28;20474;-62
2022/11/07 11:06:58;;;;;;;46.70;10.30;;;15.10;99.90;;;;;;5062854;28;20474;-62
2022/11/07 11:09:31;;;;;;;44.63;11.03;;;15.10;99.90;;;;;;5070932;28;21076;-62
2022/11/07 11:11:58;;;;;;;38.47;8.27;;;15.00;99.90;;;;;;5069865;28;21016;-62
2022/11/07 11:14:25;;;;;;;53.17;14.77;;;;;;;;;;5063406;28;21008;-63
2022/11/07 11:16:55;;;;;;;40.33;11.37;;;;;;;;;;5037359;28;21187;-62
2022/11/07 11:19:24;;;;;;;50.60;11.00;;;15.10;99.90;;;;;;5067813;28;20561;-62
2022/11/07 11:21:53;;;;;;;50.70;10.10;;;15.40;99.90;;;;;;5078353;28;20486;-62
2022/11/07 11:24:32;;;;;;;38.57;12.17;;;16.80;99.90;;;;;;5076048;28;20541;-62
2022/11/07 11:27:04;;;;;;;39.10;11.00;;;15.30;99.90;;;;;;5069245;28;20867;-61
2022/11/07 11:29:39;;;;;;;39.27;10.50;;;15.40;99.90;;;;;;5070971;28;20478;-63
2022/11/07 11:32:11;;;;;;;24.67;8.50;;;15.40;99.90;;;;;;5071019;28;20493;-62
2022/11/07 11:34:48;;;;;;;33.10;8.17;;;15.30;99.90;;;;;;5070571;28;21760;-62
2022/11/07 11:37:18;;;;;;;21.33;6.43;;;;;;;;;;5070370;28;20528;-62
2022/11/07 11:39:51;;;;;;;44.87;7.67;;;15.30;99.90;;;;;;5070971;28;20579;-62
2022/11/07 11:42:30;;;;;;;38.00;9.90;;;15.30;99.90;;;;;;5073248;28;20489;-62
2022/11/07 11:45:01;;;;;;;31.23;8.17;;;15.30;99.90;;;;;;5071887;28;20466;-62
2022/11/07 11:47:31;;;;;;;29.93;9.93;;;;;;;;;;5058095;28;20490;-62
2022/11/07 11:50:02;;;;;;;22.13;5.40;;;15.10;99.90;;;;;;5061041;28;20474;-62
2022/11/07 11:52:31;;;;;;;50.60;12.13;;;15.00;99.90;;;;;;5050792;28;20931;-62
2022/11/07 11:55:00;;;;;;;18.10;6.77;;;15.10;99.90;;;;;;5060670;28;20914;-62
2022/11/07 11:57:32;;;;;;;28.70;11.63;;;15.00;99.90;;;;;;5067118;28;20904;-62
2022/11/07 12:00:08;;;;;;;27.53;8.37;;;15.00;99.90;;;;;;5058240;28;20935;-62
2022/11/07 12:03:03;;;;;;;36.53;11.00;;;15.00;99.90;;;;;;5047963;28;20501;-62
2022/11/07 12:05:51;;;;;;;25.80;9.70;;;15.00;99.90;;;;;;5074038;28;20927;-63
2022/11/07 12:08:31;;;;;;;30.97;7.43;;;15.00;99.90;;;;;;5064964;28;20848;-62
2022/11/07 12:11:05;;;;;;;26.60;7.40;;;15.00;99.90;;;;;;5069019;28;20478;-63
2022/11/07 12:13:37;;;;;;;20.70;8.50;;;;;;;;;;5059937;28;21322;-62
2022/11/07 12:16:13;;;;;;;18.30;7.23;;;14.90;99.90;;;;;;5062323;28;20470;-62
2022/11/07 12:18:46;;;;;;;32.87;6.20;;;14.80;99.90;;;;;;5062450;28;20719;-61
2022/11/07 12:21:29;;;;;;;26.97;6.27;;;14.90;99.90;;;;;;5066615;28;20478;-61
2022/11/07 12:24:05;;;;;;;21.07;5.07;;;14.90;99.90;;;;;;5070458;28;20489;-62
2022/11/07 12:26:41;;;;;;;44.53;13.10;;;15.00;99.90;;;;;;5063510;28;21608;-61
2022/11/07 12:29:19;;;;;;;35.70;6.30;;;15.10;99.90;;;;;;5069676;28;20477;-60
2022/11/07 12:32:02;;;;;;;32.73;8.10;;;15.10;99.90;;;;;;5069035;28;20494;-61
2022/11/07 12:34:41;;;;;;;25.73;10.07;;;15.10;99.90;;;;;;5066190;28;20479;-61
2022/11/07 12:37:24;;;;;;;23.60;7.20;;;15.10;99.90;;;;;;5065917;28;21061;-61
2022/11/07 12:40:03;;;;;;;28.97;8.07;;;15.00;99.90;;;;;;5058501;28;20478;-62
2022/11/07 12:42:43;;;;;;;26.43;11.40;;;15.00;99.90;;;;;;5062049;28;20592;-62
2022/11/07 12:45:20;;;;;;;26.20;6.53;;;15.00;99.90;;;;;;5074402;28;21198;-62
2022/11/07 12:48:02;;;;;;;15.97;5.77;;;15.00;99.90;;;;;;5067671;28;20750;-62
2022/11/07 12:50:32;;;;;;;21.40;8.93;;;;;;;;;;5059388;28;20482;-61
2022/11/07 12:53:11;;;;;;;21.20;7.60;;;14.90;99.90;;;;;;5065568;28;20474;-62
2022/11/07 12:55:44;;;;;;;29.60;7.70;;;14.90;99.90;;;;;;5068059;28;20474;-63
2022/11/07 12:58:17;;;;;;;22.60;7.27;;;14.90;99.90;;;;;;5067296;28;20945;-61
2022/11/07 13:00:45;;;;;;;20.97;6.03;;;15.00;99.90;;;;;;5064992;28;21184;-61
2022/11/07 13:03:39;;;;;;;25.53;7.97;;;14.90;99.90;;;;;;5062820;28;20932;-61
2022/11/07 13:06:12;;;;;;;19.00;6.63;;;;;;;;;;5071715;28;20536;-61
2022/11/07 13:08:46;;;;;;;23.50;5.80;;;15.10;99.90;;;;;;5067039;28;20565;-60
2022/11/07 13:11:18;;;;;;;34.97;6.73;;;15.20;99.90;;;;;;5071818;28;20829;-62
2022/11/07 13:14:01;;;;;;;25.93;6.50;;;15.30;99.90;;;;;;5065218;28;20466;-61
2022/11/07 13:16:29;;;;;;;33.50;10.10;;;15.10;99.90;;;;;;5055904;28;20485;-62
2022/11/07 13:19:07;;;;;;;28.90;6.67;;;15.30;99.90;;;;;;5067481;28;20481;-61